Terminal Aerodrome Forecast
Issued by NWS

Home | Current Version | Previous Version | Text Only | Print | Product List | Glossary On
Versions: 1 2 3 4 5 6 7 8 9 10 11 12 13 14 15
030
FTUS43 KMQT 102321
TAFCMX
TAF
KCMX 102321Z 1100/1124 32012G17KT 3SM -SHSN OVC024
     FM110600 34010G16KT 5SM -SHSN OVC022
     FM111200 31009KT 6SM -SHSN OVC016
     FM111700 29013G19KT 2SM -SHSN OVC016
     FM112100 28015G22KT 3SM -SHSN BLSN OVC026=

USA.gov is the U.S. government's official web portal to all federal, state and local government web resources and services.